createdAt,value
2018-08-09T00:00:15.056Z,4.03
2018-08-09T00:02:43.604Z,4.00
2018-08-09T00:05:12.191Z,2.70
2018-08-09T00:07:40.603Z,3.60
2018-08-09T00:10:09.025Z,4.37
2018-08-09T00:12:37.457Z,4.07
2018-08-09T00:15:05.944Z,3.93
2018-08-09T00:17:34.678Z,3.70
2018-08-09T00:20:03.693Z,5.23
2018-08-09T00:22:33.097Z,2.90
2018-08-09T00:25:01.512Z,3.10
2018-08-09T00:27:29.927Z,4.33
2018-08-09T00:29:58.658Z,6.07
2018-08-09T00:32:27.287Z,3.63
2018-08-09T00:34:55.702Z,2.03
2018-08-09T00:37:24.292Z,4.47
2018-08-09T00:39:53.109Z,4.03
2018-08-09T00:42:21.507Z,5.20
2018-08-09T00:44:50.551Z,4.40
2018-08-09T00:47:19.248Z,4.23
2018-08-09T00:49:47.815Z,5.17
2018-08-09T00:52:16.413Z,1.70
2018-08-09T00:54:44.909Z,3.87
2018-08-09T00:57:13.317Z,3.70
2018-08-09T00:59:42.331Z,2.87
2018-08-09T01:02:10.720Z,2.57
2018-08-09T01:04:39.188Z,5.13
2018-08-09T01:07:07.584Z,4.13
2018-08-09T01:09:36.004Z,3.27
2018-08-09T01:12:04.820Z,3.93
2018-08-09T01:14:33.274Z,3.73
2018-08-09T01:17:01.885Z,2.83
2018-08-09T01:19:30.402Z,5.27
2018-08-09T01:21:59.536Z,4.60
2018-08-09T01:24:28.715Z,2.53
2018-08-09T01:26:57.344Z,1.90
2018-08-09T01:29:25.935Z,2.50
2018-08-09T01:31:54.409Z,2.83
2018-08-09T01:34:22.776Z,2.90
2018-08-09T01:36:51.385Z,3.43
2018-08-09T01:39:19.873Z,2.47
2018-08-09T01:41:59.921Z,3.87
2018-08-09T01:44:28.545Z,2.27
2018-08-09T01:46:57.024Z,3.07
2018-08-09T01:49:25.467Z,3.33
2018-08-09T01:51:53.990Z,2.30
2018-08-09T01:54:29.032Z,4.23
2018-08-09T01:56:57.560Z,2.77
2018-08-09T01:59:26.140Z,3.00
2018-08-09T02:01:54.687Z,2.00
2018-08-09T02:04:23.136Z,2.97
2018-08-09T02:06:51.635Z,2.43
2018-08-09T02:09:25.416Z,2.53
2018-08-09T02:11:53.920Z,2.80
2018-08-09T02:14:22.354Z,2.73
2018-08-09T02:16:51.058Z,3.07
2018-08-09T02:19:19.437Z,3.53
2018-08-09T02:21:48.136Z,5.80
2018-08-09T02:24:16.705Z,4.20
2018-08-09T02:26:45.117Z,2.53
2018-08-09T02:29:13.831Z,3.03
2018-08-09T02:31:42.437Z,3.53
2018-08-09T02:34:10.853Z,6.03
2018-08-09T02:36:39.280Z,5.13
2018-08-09T02:39:09.545Z,3.10
2018-08-09T02:41:37.992Z,2.67
2018-08-09T02:44:06.627Z,2.73
2018-08-09T02:46:35.980Z,2.00
2018-08-09T02:49:04.459Z,2.17
2018-08-09T02:51:33.448Z,2.23
2018-08-09T02:54:01.833Z,5.03
2018-08-09T02:56:30.404Z,3.20
2018-08-09T02:58:59.137Z,2.87
2018-08-09T03:01:28.322Z,4.90
2018-08-09T03:03:56.896Z,3.37
2018-08-09T03:06:25.380Z,3.50
2018-08-09T03:08:53.830Z,2.87
2018-08-09T03:11:22.384Z,3.17
2018-08-09T03:13:50.977Z,3.17
2018-08-09T03:16:19.536Z,3.90
2018-08-09T03:18:47.998Z,3.33
2018-08-09T03:21:16.516Z,2.20
2018-08-09T03:23:45.043Z,3.00
2018-08-09T03:26:13.881Z,4.77
2018-08-09T03:28:49.315Z,3.97
2018-08-09T03:31:17.804Z,2.77
2018-08-09T03:33:46.285Z,2.90
2018-08-09T03:36:14.788Z,4.60
2018-08-09T03:38:43.638Z,2.23
2018-08-09T03:41:12.845Z,7.17
2018-08-09T03:43:41.445Z,7.10
2018-08-09T03:46:09.921Z,2.63
2018-08-09T03:48:38.784Z,2.27
2018-08-09T03:51:07.438Z,3.53
2018-08-09T03:53:35.860Z,4.10
2018-08-09T03:56:04.371Z,4.07
2018-08-09T03:58:32.905Z,4.43
2018-08-09T04:01:01.440Z,3.20
2018-08-09T04:03:30.043Z,3.10
2018-08-09T04:05:58.562Z,2.23
2018-08-09T04:08:27.448Z,2.83
2018-08-09T04:10:56.039Z,4.13
2018-08-09T04:13:24.582Z,3.03
2018-08-09T04:15:53.305Z,4.63
2018-08-09T04:18:21.809Z,2.00
2018-08-09T04:20:50.398Z,2.43
2018-08-09T04:23:18.960Z,2.93
2018-08-09T04:25:48.033Z,2.70
2018-08-09T04:28:16.469Z,2.23
2018-08-09T04:30:44.872Z,3.93
2018-08-09T04:33:13.422Z,3.57
2018-08-09T04:35:42.030Z,3.30
2018-08-09T04:38:10.604Z,6.03
2018-08-09T04:40:39.471Z,7.30
2018-08-09T04:43:08.006Z,6.20
2018-08-09T04:45:36.386Z,3.93
2018-08-09T04:48:05.443Z,4.23
2018-08-09T04:50:34.180Z,6.40
2018-08-09T04:53:02.732Z,4.57
2018-08-09T04:55:31.157Z,3.73
2018-08-09T04:57:59.717Z,8.97
2018-08-09T05:00:28.126Z,4.97
2018-08-09T05:02:56.629Z,4.30
2018-08-09T05:05:25.214Z,3.60
2018-08-09T05:07:53.873Z,4.13
2018-08-09T05:10:22.507Z,3.53
2018-08-09T05:12:51.008Z,3.53
2018-08-09T05:15:19.519Z,4.80
2018-08-09T05:17:48.108Z,3.53
2018-08-09T05:20:17.596Z,3.30
2018-08-09T05:22:46.213Z,3.93
2018-08-09T05:25:14.613Z,2.53
2018-08-09T05:27:43.490Z,4.17
2018-08-09T05:30:12.620Z,3.40
2018-08-09T05:32:41.152Z,3.80
2018-08-09T05:35:09.736Z,2.77
2018-08-09T05:37:39.348Z,2.10
2018-08-09T05:40:08.209Z,3.83
2018-08-09T05:42:36.749Z,3.83
2018-08-09T05:45:05.672Z,4.20
2018-08-09T05:47:34.278Z,3.87
2018-08-09T05:50:02.773Z,4.93
2018-08-09T05:52:31.345Z,5.23
2018-08-09T05:54:59.785Z,4.50
2018-08-09T05:57:28.993Z,3.83
2018-08-09T05:59:57.482Z,4.87
2018-08-09T06:02:26.044Z,6.03
2018-08-09T06:04:54.848Z,6.03
2018-08-09T06:07:23.904Z,6.20
2018-08-09T06:09:52.416Z,4.90
2018-08-09T06:12:20.935Z,4.37
2018-08-09T06:14:50.116Z,7.10
2018-08-09T06:17:19.684Z,3.67
2018-08-09T06:19:48.277Z,4.53
2018-08-09T06:22:16.913Z,4.00
2018-08-09T06:24:45.495Z,5.10
2018-08-09T06:27:14.636Z,4.10
2018-08-09T06:29:43.220Z,5.33
2018-08-09T06:32:11.821Z,9.47
2018-08-09T06:34:40.332Z,7.87
2018-08-09T06:37:08.934Z,7.90
2018-08-09T06:39:37.368Z,6.83
2018-08-09T06:42:05.797Z,5.23
2018-08-09T06:44:34.445Z,5.00
2018-08-09T06:47:03.217Z,4.67
2018-08-09T06:49:32.446Z,6.63
2018-08-09T06:52:01.016Z,6.17
2018-08-09T06:54:29.621Z,4.67
2018-08-09T06:56:58.871Z,6.40
2018-08-09T06:59:27.274Z,9.00
2018-08-09T07:01:55.882Z,6.33
2018-08-09T07:04:24.467Z,4.00
2018-08-09T07:06:52.828Z,6.27
2018-08-09T07:09:21.543Z,6.43
2018-08-09T07:11:49.913Z,4.93
2018-08-09T07:14:18.299Z,6.70
2018-08-09T07:16:46.783Z,7.67
2018-08-09T07:19:15.364Z,7.13
2018-08-09T07:21:43.839Z,3.77
2018-08-09T07:24:12.267Z,3.93
2018-08-09T07:26:40.628Z,5.90
2018-08-09T07:29:08.983Z,4.20
2018-08-09T07:31:37.363Z,4.77
2018-08-09T07:34:05.792Z,5.33
2018-08-09T07:36:34.716Z,5.87
2018-08-09T07:39:03.224Z,4.67
2018-08-09T07:41:31.719Z,9.03
2018-08-09T07:44:00.302Z,6.23
2018-08-09T07:46:28.970Z,7.17
2018-08-09T07:48:57.509Z,6.50
2018-08-09T07:51:25.912Z,7.27
2018-08-09T07:53:54.606Z,6.67
2018-08-09T07:56:23.081Z,10.97
2018-08-09T07:58:51.665Z,5.50
2018-08-09T08:01:20.373Z,6.07
2018-08-09T08:03:49.220Z,4.37
2018-08-09T08:06:18.549Z,8.17
2018-08-09T08:08:47.469Z,5.97
2018-08-09T08:11:15.916Z,5.37
2018-08-09T08:13:44.572Z,6.17
2018-08-09T08:16:13.154Z,7.30
2018-08-09T08:18:41.784Z,5.40
2018-08-09T08:21:10.168Z,7.43
2018-08-09T08:23:38.540Z,7.10
2018-08-09T08:26:06.969Z,4.67
2018-08-09T08:28:35.400Z,6.23
2018-08-09T08:31:03.804Z,5.27
2018-08-09T08:33:38.878Z,7.50
2018-08-09T08:36:07.308Z,9.33
2018-08-09T08:38:35.712Z,9.23
2018-08-09T08:41:04.076Z,10.73
2018-08-09T08:43:32.452Z,8.17
2018-08-09T08:46:00.868Z,6.23
2018-08-09T08:48:29.204Z,6.40
2018-08-09T08:50:58.388Z,6.43
2018-08-09T08:53:26.750Z,6.77
2018-08-09T08:55:56.577Z,5.20
2018-08-09T08:58:25.145Z,5.33
2018-08-09T09:00:53.774Z,5.20
2018-08-09T09:03:22.249Z,5.50
2018-08-09T09:05:50.804Z,7.23
2018-08-09T09:08:19.180Z,8.80
2018-08-09T09:10:51.786Z,6.13
2018-08-09T09:13:20.380Z,7.10
2018-08-09T09:15:48.792Z,9.07
2018-08-09T09:18:17.185Z,7.27
2018-08-09T09:20:46.198Z,6.23
2018-08-09T09:23:14.969Z,6.27
2018-08-09T09:25:43.569Z,6.40
2018-08-09T09:28:12.048Z,4.90
2018-08-09T09:30:40.479Z,6.20
2018-08-09T09:33:08.902Z,7.63
2018-08-09T09:35:37.405Z,5.07
2018-08-09T09:38:06.034Z,5.97
2018-08-09T09:40:34.521Z,6.37
2018-08-09T09:43:02.901Z,6.13
2018-08-09T09:45:31.523Z,7.73
2018-08-09T09:47:59.944Z,6.00
2018-08-09T09:50:28.307Z,5.30
2018-08-09T09:52:56.694Z,5.83
2018-08-09T09:55:25.272Z,9.83
2018-08-09T09:57:53.615Z,7.03
2018-08-09T10:00:28.788Z,5.93
2018-08-09T10:02:57.147Z,7.73
2018-08-09T10:05:25.500Z,6.90
2018-08-09T10:07:54.057Z,4.93
2018-08-09T10:10:22.477Z,6.13
2018-08-09T10:12:50.826Z,9.90
2018-08-09T10:15:19.967Z,5.77
2018-08-09T10:17:48.678Z,5.97
2018-08-09T10:20:17.038Z,14.20
2018-08-09T10:22:45.575Z,5.43
2018-08-09T10:25:13.943Z,8.13
2018-08-09T10:27:42.428Z,8.27
2018-08-09T10:30:10.857Z,3.33
2018-08-09T10:32:39.214Z,5.30
2018-08-09T10:35:07.718Z,8.33
2018-08-09T10:37:36.092Z,4.83
2018-08-09T10:40:04.963Z,7.67
2018-08-09T10:42:33.500Z,4.27
2018-08-09T10:45:02.051Z,4.10
2018-08-09T10:47:30.460Z,4.43
2018-08-09T10:49:58.835Z,5.90
2018-08-09T10:52:27.225Z,6.90
2018-08-09T10:54:56.151Z,5.50
2018-08-09T10:57:25.600Z,5.47
2018-08-09T10:59:54.254Z,5.97
2018-08-09T11:02:22.760Z,4.97
2018-08-09T11:04:51.477Z,5.37
2018-08-09T11:07:19.966Z,3.87
2018-08-09T11:09:48.599Z,5.50
2018-08-09T11:12:17.064Z,4.60
2018-08-09T11:14:45.453Z,3.07
2018-08-09T11:17:13.821Z,6.03
2018-08-09T11:19:42.824Z,6.23
2018-08-09T11:22:11.268Z,3.47
2018-08-09T11:24:39.640Z,4.27
2018-08-09T11:27:08.044Z,6.27
2018-08-09T11:29:36.407Z,4.17
2018-08-09T11:32:05.677Z,3.50
2018-08-09T11:34:34.092Z,6.80
2018-08-09T11:37:02.560Z,5.40
2018-08-09T11:39:30.909Z,5.73
2018-08-09T11:41:59.462Z,6.80
2018-08-09T11:44:27.832Z,9.03
2018-08-09T11:46:56.223Z,6.90
2018-08-09T11:49:24.696Z,8.80
2018-08-09T11:51:53.290Z,5.93
2018-08-09T11:54:21.724Z,5.20
2018-08-09T11:56:50.727Z,7.50
2018-08-09T11:59:19.163Z,5.63
2018-08-09T12:01:47.612Z,5.30
2018-08-09T12:04:16.075Z,3.97
2018-08-09T12:06:44.451Z,6.50
2018-08-09T12:09:12.846Z,7.67
2018-08-09T12:11:41.443Z,4.43
2018-08-09T12:14:10.360Z,5.93
2018-08-09T12:16:45.746Z,3.73
2018-08-09T12:19:14.244Z,6.00
2018-08-09T12:21:43.479Z,4.57
2018-08-09T12:24:12.653Z,7.87
2018-08-09T12:26:41.652Z,5.17
2018-08-09T12:29:10.920Z,6.27
2018-08-09T12:31:39.348Z,5.90
2018-08-09T12:34:07.741Z,8.33
2018-08-09T12:36:37.028Z,6.60
2018-08-09T12:39:08.836Z,5.47
2018-08-09T12:41:37.379Z,4.67
2018-08-09T12:44:05.933Z,7.30
2018-08-09T12:46:34.355Z,6.13
2018-08-09T12:49:02.777Z,7.27
2018-08-09T12:51:31.350Z,7.93
2018-08-09T12:53:59.989Z,6.53
2018-08-09T12:56:28.468Z,7.60
2018-08-09T12:58:57.748Z,7.30
2018-08-09T13:01:26.500Z,8.03
2018-08-09T13:03:55.046Z,7.00
2018-08-09T13:06:23.473Z,6.73
2018-08-09T13:08:51.876Z,8.23
2018-08-09T13:11:21.731Z,8.90
2018-08-09T13:13:51.128Z,8.10
2018-08-09T13:16:19.718Z,11.63
2018-08-09T13:18:48.228Z,7.97
2018-08-09T13:21:17.372Z,7.97
2018-08-09T13:23:46.209Z,8.97
2018-08-09T13:26:14.661Z,9.70
2018-08-09T13:28:49.960Z,9.90
2018-08-09T13:31:18.510Z,8.73
2018-08-09T13:33:46.934Z,7.43
2018-08-09T13:36:15.361Z,7.67
2018-08-09T13:38:43.841Z,10.13
2018-08-09T13:41:12.316Z,9.17
2018-08-09T13:43:40.816Z,10.23
2018-08-09T13:46:09.231Z,8.00
2018-08-09T13:48:37.697Z,10.00
2018-08-09T13:51:06.466Z,7.23
2018-08-09T13:53:35.005Z,7.77
2018-08-09T13:56:03.677Z,8.70
2018-08-09T13:58:32.277Z,6.43
2018-08-09T14:01:01.377Z,7.00
2018-08-09T14:03:29.928Z,7.17
2018-08-09T14:05:58.492Z,8.33
2018-08-09T14:08:27.340Z,9.10
2018-08-09T14:10:56.829Z,8.40
2018-08-09T14:13:25.522Z,7.57
2018-08-09T14:15:54.521Z,7.73
2018-08-09T14:18:23.139Z,7.23
2018-08-09T14:20:51.546Z,6.83
2018-08-09T14:23:20.310Z,7.50
2018-08-09T14:25:49.366Z,8.13
2018-08-09T14:28:18.087Z,7.77
2018-08-09T14:30:46.816Z,6.67
2018-08-09T14:33:15.863Z,7.43
2018-08-09T14:35:44.365Z,7.47
2018-08-09T14:38:12.951Z,7.40
2018-08-09T14:40:41.384Z,8.43
2018-08-09T14:43:10.040Z,8.80
2018-08-09T14:45:38.655Z,8.73
2018-08-09T14:48:07.113Z,7.70
2018-08-09T14:50:35.696Z,8.87
2018-08-09T14:53:04.295Z,8.33
2018-08-09T14:55:32.880Z,8.60
2018-08-09T14:58:01.474Z,7.33
2018-08-09T15:00:29.945Z,8.53
2018-08-09T15:02:58.609Z,9.03
2018-08-09T15:05:27.527Z,9.33
2018-08-09T15:07:56.197Z,8.67
2018-08-09T15:10:24.766Z,9.23
2018-08-09T15:12:53.297Z,9.00
2018-08-09T15:15:21.904Z,11.50
2018-08-09T15:17:51.080Z,8.93
2018-08-09T15:20:20.113Z,8.57
2018-08-09T15:22:48.530Z,9.90
2018-08-09T15:25:17.151Z,8.70
2018-08-09T15:27:45.720Z,7.30
2018-08-09T15:30:19.804Z,8.60
2018-08-09T15:32:49.069Z,8.77
2018-08-09T15:35:18.227Z,10.23
2018-08-09T15:37:46.979Z,9.07
2018-08-09T15:40:16.095Z,8.87
2018-08-09T15:42:44.533Z,8.00
2018-08-09T15:45:14.616Z,9.27
2018-08-09T15:47:43.490Z,9.63
2018-08-09T15:50:15.157Z,9.20
2018-08-09T15:52:43.541Z,9.13
2018-08-09T15:55:12.720Z,8.80
2018-08-09T15:57:41.153Z,9.07
2018-08-09T16:00:13.454Z,8.03
2018-08-09T16:02:41.925Z,8.90
2018-08-09T16:05:10.641Z,9.60
2018-08-09T16:07:39.688Z,9.60
2018-08-09T16:10:12.227Z,9.60
2018-08-09T16:12:40.882Z,11.27
2018-08-09T16:15:12.708Z,9.43
2018-08-09T16:17:41.175Z,10.27
2018-08-09T16:20:10.847Z,8.90
2018-08-09T16:22:39.427Z,10.17
2018-08-09T16:25:10.261Z,10.47
2018-08-09T16:27:39.132Z,11.07
2018-08-09T16:30:13.278Z,11.63
2018-08-09T16:32:42.252Z,13.60
2018-08-09T16:35:11.662Z,11.90
2018-08-09T16:37:40.971Z,10.80
2018-08-09T16:40:11.881Z,10.03
2018-08-09T16:42:41.052Z,10.00
2018-08-09T16:45:10.566Z,9.23
2018-08-09T16:47:39.211Z,10.03
2018-08-09T16:50:08.725Z,12.90
2018-08-09T16:52:37.440Z,10.63
2018-08-09T16:55:08.184Z,9.00
2018-08-09T16:57:36.652Z,10.47
2018-08-09T17:00:08.105Z,9.77
2018-08-09T17:02:37.333Z,11.67
2018-08-09T17:05:08.272Z,12.33
2018-08-09T17:07:36.785Z,11.53
2018-08-09T17:10:05.525Z,10.50
2018-08-09T17:12:34.192Z,9.53
2018-08-09T17:15:02.778Z,11.50
2018-08-09T17:17:31.309Z,13.80
2018-08-09T17:19:59.800Z,13.03
2018-08-09T17:22:28.601Z,12.40
2018-08-09T17:24:57.461Z,12.23
2018-08-09T17:27:25.902Z,11.97
2018-08-09T17:29:54.570Z,10.40
2018-08-09T17:32:23.404Z,10.20
2018-08-09T17:34:52.678Z,9.63
2018-08-09T17:37:22.255Z,9.57
2018-08-09T17:39:51.684Z,11.90
2018-08-09T17:42:20.712Z,10.47
2018-08-09T17:44:49.383Z,6.80
2018-08-09T17:47:18.347Z,7.37
2018-08-09T17:49:46.901Z,6.40
2018-08-09T17:52:15.607Z,7.70
2018-08-09T17:54:44.465Z,6.00
2018-08-09T17:57:12.943Z,4.47
2018-08-09T17:59:41.506Z,5.03
2018-08-09T18:02:10.066Z,6.17
2018-08-09T18:04:39.150Z,4.90
2018-08-09T18:07:07.771Z,3.63
2018-08-09T18:09:36.893Z,4.23
2018-08-09T18:12:05.650Z,4.13
2018-08-09T18:14:34.440Z,4.60
2018-08-09T18:17:02.832Z,4.17
2018-08-09T18:19:31.757Z,4.57
2018-08-09T18:22:00.805Z,5.47
2018-08-09T18:24:29.254Z,3.43
2018-08-09T18:26:57.825Z,5.63
2018-08-09T18:29:26.930Z,5.40
2018-08-09T18:31:55.471Z,7.30
2018-08-09T18:34:24.382Z,6.97
2018-08-09T18:36:53.161Z,5.93
2018-08-09T18:39:21.708Z,8.63
2018-08-09T18:41:51.044Z,6.27
2018-08-09T18:44:19.797Z,7.97
2018-08-09T18:46:48.534Z,13.87
2018-08-09T18:49:17.054Z,5.07
2018-08-09T18:51:45.796Z,5.63
2018-08-09T18:54:14.419Z,5.23
2018-08-09T18:56:42.843Z,8.97
2018-08-09T18:59:11.580Z,5.10
2018-08-09T19:01:40.162Z,8.23
2018-08-09T19:04:08.582Z,9.63
2018-08-09T19:06:37.218Z,6.97
2018-08-09T19:09:08.179Z,11.10
2018-08-09T19:11:36.702Z,12.20
2018-08-09T19:14:05.451Z,10.60
2018-08-09T19:16:34.133Z,20.43
2018-08-09T19:19:02.617Z,20.57
2018-08-09T19:21:31.173Z,21.47
2018-08-09T19:23:59.838Z,19.07
2018-08-09T19:26:28.620Z,15.60
2018-08-09T19:28:57.216Z,18.57
2018-08-09T19:31:26.006Z,15.13
2018-08-09T19:34:01.345Z,14.43
2018-08-09T19:36:30.305Z,9.83
2018-08-09T19:38:59.263Z,15.27
2018-08-09T19:41:27.817Z,9.37
2018-08-09T19:43:56.743Z,9.70
2018-08-09T19:46:25.696Z,7.93
2018-08-09T19:48:54.180Z,6.90
2018-08-09T19:51:22.631Z,5.67
2018-08-09T19:53:51.451Z,5.30
2018-08-09T19:56:20.030Z,5.23
2018-08-09T19:58:48.786Z,5.27
2018-08-09T20:01:17.338Z,6.13
2018-08-09T20:03:45.847Z,7.23
2018-08-09T20:06:14.419Z,4.37
2018-08-09T20:08:43.042Z,6.20
2018-08-09T20:11:11.475Z,5.97
2018-08-09T20:13:40.222Z,5.10
2018-08-09T20:16:08.828Z,5.77
2018-08-09T20:18:37.299Z,5.87
2018-08-09T20:21:09.995Z,7.33
2018-08-09T20:23:38.627Z,6.37
2018-08-09T20:26:07.746Z,4.37
2018-08-09T20:28:36.233Z,6.73
2018-08-09T20:31:04.624Z,8.87
2018-08-09T20:33:33.180Z,8.53
2018-08-09T20:36:01.749Z,6.03
2018-08-09T20:38:30.462Z,5.50
2018-08-09T20:40:59.196Z,6.63
2018-08-09T20:43:27.650Z,7.37
2018-08-09T20:45:56.359Z,7.30
2018-08-09T20:48:24.987Z,7.33
2018-08-09T20:50:53.726Z,6.10
2018-08-09T20:53:22.177Z,5.67
2018-08-09T20:55:50.624Z,5.13
2018-08-09T20:58:19.644Z,8.93
2018-08-09T21:00:48.099Z,8.50
2018-08-09T21:03:16.907Z,8.13
2018-08-09T21:05:45.493Z,6.77
2018-08-09T21:08:14.228Z,7.60
2018-08-09T21:10:42.892Z,6.47
2018-08-09T21:13:11.728Z,9.03
2018-08-09T21:15:40.235Z,8.07
2018-08-09T21:18:09.232Z,5.57
2018-08-09T21:20:37.686Z,4.87
2018-08-09T21:23:06.233Z,7.13
2018-08-09T21:25:34.758Z,6.53
2018-08-09T21:28:03.212Z,4.40
2018-08-09T21:30:31.997Z,6.33
2018-08-09T21:33:01.540Z,6.37
2018-08-09T21:35:30.198Z,5.57
2018-08-09T21:37:58.791Z,6.07
2018-08-09T21:40:27.861Z,7.47
2018-08-09T21:42:56.978Z,7.60
2018-08-09T21:45:26.279Z,5.60
2018-08-09T21:47:55.171Z,10.10
2018-08-09T21:50:23.815Z,7.33
2018-08-09T21:52:52.377Z,5.90
2018-08-09T21:55:21.027Z,4.03
2018-08-09T21:57:49.485Z,5.50
2018-08-09T22:00:57.631Z,10.10
2018-08-09T22:03:28.629Z,6.83
2018-08-09T22:06:05.064Z,5.43
2018-08-09T22:08:38.876Z,3.20
2018-08-09T22:11:13.854Z,8.03
2018-08-09T22:13:47.755Z,4.00
2018-08-09T22:16:21.502Z,4.20
2018-08-09T22:18:55.365Z,4.37
2018-08-09T22:21:29.107Z,10.40
2018-08-09T22:23:57.660Z,6.67
2018-08-09T22:26:26.090Z,6.20
2018-08-09T22:28:54.664Z,7.50
2018-08-09T22:31:23.176Z,5.73
2018-08-09T22:33:52.233Z,8.73
2018-08-09T22:36:21.323Z,7.33
2018-08-09T22:38:51.538Z,8.50
2018-08-09T22:41:19.928Z,4.57
2018-08-09T22:43:49.733Z,7.47
2018-08-09T22:46:18.498Z,7.30
2018-08-09T22:48:47.202Z,4.43
2018-08-09T22:51:16.023Z,3.57
2018-08-09T22:53:53.028Z,6.50
2018-08-09T22:56:24.231Z,7.80
2018-08-09T22:59:41.993Z,5.87
2018-08-09T23:02:11.238Z,6.73
2018-08-09T23:04:39.917Z,6.80
2018-08-09T23:07:09.644Z,6.00
2018-08-09T23:09:38.365Z,5.30
2018-08-09T23:12:11.616Z,4.60
2018-08-09T23:14:46.929Z,2.80
2018-08-09T23:17:15.459Z,4.37
2018-08-09T23:19:44.090Z,4.53
2018-08-09T23:22:17.045Z,3.93
2018-08-09T23:24:45.490Z,5.13
2018-08-09T23:27:14.127Z,5.27
2018-08-09T23:29:42.721Z,4.63
2018-08-09T23:32:11.123Z,5.03
2018-08-09T23:34:39.676Z,3.27
2018-08-09T23:37:08.061Z,3.53
2018-08-09T23:39:36.587Z,3.00
2018-08-09T23:42:05.149Z,2.83
2018-08-09T23:44:33.677Z,3.90
2018-08-09T23:47:02.841Z,2.80
2018-08-09T23:49:31.487Z,4.07
2018-08-09T23:51:59.974Z,2.37
2018-08-09T23:54:28.727Z,4.67
2018-08-09T23:56:57.242Z,3.07
2018-08-09T23:59:25.923Z,2.97
